sensor_id;sensor_type;location;lat;lon;timestamp;pressure;altitude;pressure_sealevel;temperature;humidity
79150;BME280;68563;45.644;13.782;2023-04-24T00:00:27;100253.53;;;16.59;54.34
79150;BME280;68563;45.644;13.782;2023-04-24T00:02:52;100244.16;;;16.55;54.35
79150;BME280;68563;45.644;13.782;2023-04-24T00:05:22;100260.66;;;16.56;54.31
79150;BME280;68563;45.644;13.782;2023-04-24T00:07:47;100254.41;;;16.60;54.44
79150;BME280;68563;45.644;13.782;2023-04-24T00:10:13;100260.53;;;16.59;54.06
79150;BME280;68563;45.644;13.782;2023-04-24T00:12:38;100257.84;;;16.61;54.43
79150;BME280;68563;45.644;13.782;2023-04-24T00:15:05;100262.38;;;16.57;54.59
79150;BME280;68563;45.644;13.782;2023-04-24T00:17:30;100255.50;;;16.54;54.91
79150;BME280;68563;45.644;13.782;2023-04-24T00:19:56;100255.59;;;16.53;54.77
79150;BME280;68563;45.644;13.782;2023-04-24T00:22:27;100253.63;;;16.58;54.89
79150;BME280;68563;45.644;13.782;2023-04-24T00:24:53;100247.41;;;16.61;54.16
79150;BME280;68563;45.644;13.782;2023-04-24T00:27:18;100236.09;;;16.60;54.34
79150;BME280;68563;45.644;13.782;2023-04-24T00:29:44;100242.81;;;16.66;54.70
79150;BME280;68563;45.644;13.782;2023-04-24T00:32:09;100241.56;;;16.74;55.00
79150;BME280;68563;45.644;13.782;2023-04-24T00:34:35;100243.59;;;16.68;55.18
79150;BME280;68563;45.644;13.782;2023-04-24T00:37:00;100244.72;;;16.62;56.45
79150;BME280;68563;45.644;13.782;2023-04-24T00:39:26;100247.41;;;16.61;56.38
79150;BME280;68563;45.644;13.782;2023-04-24T00:41:52;100248.25;;;16.61;56.29
79150;BME280;68563;45.644;13.782;2023-04-24T00:44:18;100240.19;;;16.66;56.49
79150;BME280;68563;45.644;13.782;2023-04-24T00:46:43;100240.13;;;16.67;56.12
79150;BME280;68563;45.644;13.782;2023-04-24T00:49:09;100235.66;;;16.69;56.37
79150;BME280;68563;45.644;13.782;2023-04-24T00:51:35;100223.81;;;16.62;56.42
79150;BME280;68563;45.644;13.782;2023-04-24T00:54:01;100225.50;;;16.63;56.65
79150;BME280;68563;45.644;13.782;2023-04-24T00:56:27;100229.81;;;16.64;56.34
79150;BME280;68563;45.644;13.782;2023-04-24T00:58:53;100216.59;;;16.67;56.08
79150;BME280;68563;45.644;13.782;2023-04-24T01:01:20;100219.78;;;16.55;55.97
79150;BME280;68563;45.644;13.782;2023-04-24T01:03:46;100218.28;;;16.49;56.48
79150;BME280;68563;45.644;13.782;2023-04-24T01:06:12;100213.78;;;16.53;56.24
79150;BME280;68563;45.644;13.782;2023-04-24T01:08:39;100211.06;;;16.54;56.21
79150;BME280;68563;45.644;13.782;2023-04-24T01:11:05;100212.00;;;16.53;56.45
79150;BME280;68563;45.644;13.782;2023-04-24T01:13:31;100198.09;;;16.53;56.36
79150;BME280;68563;45.644;13.782;2023-04-24T01:15:57;100208.81;;;16.47;56.82
79150;BME280;68563;45.644;13.782;2023-04-24T01:18:22;100199.84;;;16.33;57.08
79150;BME280;68563;45.644;13.782;2023-04-24T01:20:51;100199.03;;;16.31;57.09
79150;BME280;68563;45.644;13.782;2023-04-24T01:23:18;100192.81;;;16.34;57.07
79150;BME280;68563;45.644;13.782;2023-04-24T01:25:44;100200.59;;;16.35;56.90
79150;BME280;68563;45.644;13.782;2023-04-24T01:28:09;100194.59;;;16.33;56.88
79150;BME280;68563;45.644;13.782;2023-04-24T01:30:35;100188.72;;;16.28;57.04
79150;BME280;68563;45.644;13.782;2023-04-24T01:33:01;100190.50;;;16.27;57.25
79150;BME280;68563;45.644;13.782;2023-04-24T01:35:26;100199.41;;;16.23;57.75
79150;BME280;68563;45.644;13.782;2023-04-24T01:37:52;100201.41;;;16.17;58.06
79150;BME280;68563;45.644;13.782;2023-04-24T01:40:17;100189.25;;;16.16;57.90
79150;BME280;68563;45.644;13.782;2023-04-24T01:42:43;100189.00;;;16.22;57.92
79150;BME280;68563;45.644;13.782;2023-04-24T01:45:11;100186.38;;;16.22;57.72
79150;BME280;68563;45.644;13.782;2023-04-24T01:47:37;100184.56;;;16.24;57.62
79150;BME280;68563;45.644;13.782;2023-04-24T01:50:03;100171.63;;;16.21;57.73
79150;BME280;68563;45.644;13.782;2023-04-24T01:52:29;100169.50;;;16.29;57.99
79150;BME280;68563;45.644;13.782;2023-04-24T01:54:56;100185.06;;;16.32;57.62
79150;BME280;68563;45.644;13.782;2023-04-24T01:57:24;100174.34;;;16.38;57.72
79150;BME280;68563;45.644;13.782;2023-04-24T01:59:51;100171.94;;;16.34;57.70
79150;BME280;68563;45.644;13.782;2023-04-24T02:02:17;100162.97;;;16.39;57.19
79150;BME280;68563;45.644;13.782;2023-04-24T02:04:42;100155.25;;;16.36;57.26
79150;BME280;68563;45.644;13.782;2023-04-24T02:07:07;100167.75;;;16.49;57.03
79150;BME280;68563;45.644;13.782;2023-04-24T02:09:33;100164.78;;;16.37;57.14
79150;BME280;68563;45.644;13.782;2023-04-24T02:11:58;100172.56;;;16.39;57.74
79150;BME280;68563;45.644;13.782;2023-04-24T02:14:24;100169.19;;;16.37;57.77
79150;BME280;68563;45.644;13.782;2023-04-24T02:16:49;100171.00;;;16.35;57.82
79150;BME280;68563;45.644;13.782;2023-04-24T02:19:14;100161.19;;;16.40;58.11
79150;BME280;68563;45.644;13.782;2023-04-24T02:21:41;100162.06;;;16.40;58.29
79150;BME280;68563;45.644;13.782;2023-04-24T02:24:06;100147.91;;;16.45;57.51
79150;BME280;68563;45.644;13.782;2023-04-24T02:26:31;100156.38;;;16.50;57.25
79150;BME280;68563;45.644;13.782;2023-04-24T02:28:57;100146.94;;;16.47;56.72
79150;BME280;68563;45.644;13.782;2023-04-24T02:31:22;100149.63;;;16.46;56.85
79150;BME280;68563;45.644;13.782;2023-04-24T02:33:48;100143.59;;;16.43;56.54
79150;BME280;68563;45.644;13.782;2023-04-24T02:36:13;100137.34;;;16.48;56.70
79150;BME280;68563;45.644;13.782;2023-04-24T02:38:39;100131.25;;;16.47;56.81
79150;BME280;68563;45.644;13.782;2023-04-24T02:41:04;100131.25;;;16.47;56.36
79150;BME280;68563;45.644;13.782;2023-04-24T02:43:32;100134.06;;;16.42;56.85
79150;BME280;68563;45.644;13.782;2023-04-24T02:45:57;100135.75;;;16.43;56.98
79150;BME280;68563;45.644;13.782;2023-04-24T02:48:23;100118.75;;;16.35;57.33
79150;BME280;68563;45.644;13.782;2023-04-24T02:50:49;100133.44;;;16.37;57.67
79150;BME280;68563;45.644;13.782;2023-04-24T02:53:15;100133.50;;;16.36;57.60
79150;BME280;68563;45.644;13.782;2023-04-24T02:55:41;100125.59;;;16.37;57.71
79150;BME280;68563;45.644;13.782;2023-04-24T02:58:06;100127.00;;;16.45;57.48
79150;BME280;68563;45.644;13.782;2023-04-24T03:00:31;100127.28;;;16.38;57.26
79150;BME280;68563;45.644;13.782;2023-04-24T03:02:57;100124.53;;;16.41;57.70
79150;BME280;68563;45.644;13.782;2023-04-24T03:05:22;100117.56;;;16.42;57.68
79150;BME280;68563;45.644;13.782;2023-04-24T03:07:48;100120.25;;;16.40;58.03
79150;BME280;68563;45.644;13.782;2023-04-24T03:10:13;100116.69;;;16.41;57.94
79150;BME280;68563;45.644;13.782;2023-04-24T03:12:39;100100.59;;;16.32;58.46
79150;BME280;68563;45.644;13.782;2023-04-24T03:15:04;100111.81;;;16.34;59.01
79150;BME280;68563;45.644;13.782;2023-04-24T03:17:30;100109.28;;;16.32;58.49
79150;BME280;68563;45.644;13.782;2023-04-24T03:19:56;100110.06;;;16.34;59.00
79150;BME280;68563;45.644;13.782;2023-04-24T03:22:21;100101.06;;;16.21;59.00
79150;BME280;68563;45.644;13.782;2023-04-24T03:24:46;100096.13;;;16.15;59.46
79150;BME280;68563;45.644;13.782;2023-04-24T03:27:12;100089.22;;;16.14;59.49
79150;BME280;68563;45.644;13.782;2023-04-24T03:29:37;100099.81;;;16.10;60.40
79150;BME280;68563;45.644;13.782;2023-04-24T03:32:02;100080.09;;;16.03;60.42
79150;BME280;68563;45.644;13.782;2023-04-24T03:34:28;100086.59;;;16.14;60.15
79150;BME280;68563;45.644;13.782;2023-04-24T03:36:53;100091.69;;;16.17;59.92
79150;BME280;68563;45.644;13.782;2023-04-24T03:39:19;100090.63;;;16.21;59.43
79150;BME280;68563;45.644;13.782;2023-04-24T03:41:44;100085.56;;;16.18;59.73
79150;BME280;68563;45.644;13.782;2023-04-24T03:44:09;100086.97;;;16.06;60.13
79150;BME280;68563;45.644;13.782;2023-04-24T03:46:35;100094.59;;;16.10;59.43
79150;BME280;68563;45.644;13.782;2023-04-24T03:49:00;100092.69;;;16.14;59.73
79150;BME280;68563;45.644;13.782;2023-04-24T03:51:26;100083.94;;;16.15;60.05
79150;BME280;68563;45.644;13.782;2023-04-24T03:53:53;100087.66;;;16.09;59.85
79150;BME280;68563;45.644;13.782;2023-04-24T03:56:18;100097.03;;;16.14;59.87
79150;BME280;68563;45.644;13.782;2023-04-24T03:58:44;100081.59;;;16.09;59.74
79150;BME280;68563;45.644;13.782;2023-04-24T04:01:09;100089.28;;;16.12;59.55
79150;BME280;68563;45.644;13.782;2023-04-24T04:03:36;100094.94;;;16.22;59.73
79150;BME280;68563;45.644;13.782;2023-04-24T04:06:02;100086.88;;;16.07;60.09
79150;BME280;68563;45.644;13.782;2023-04-24T04:08:27;100078.28;;;16.05;59.48
79150;BME280;68563;45.644;13.782;2023-04-24T04:10:53;100076.38;;;16.09;59.39
79150;BME280;68563;45.644;13.782;2023-04-24T04:13:18;100076.94;;;16.16;59.23
79150;BME280;68563;45.644;13.782;2023-04-24T04:15:43;100080.47;;;16.15;59.00
79150;BME280;68563;45.644;13.782;2023-04-24T04:18:09;100079.00;;;16.09;59.19
79150;BME280;68563;45.644;13.782;2023-04-24T04:20:34;100083.63;;;16.02;58.88
79150;BME280;68563;45.644;13.782;2023-04-24T04:23:00;100080.09;;;16.03;58.68
79150;BME280;68563;45.644;13.782;2023-04-24T04:25:25;100081.22;;;15.98;58.67
79150;BME280;68563;45.644;13.782;2023-04-24T04:27:51;100079.41;;;16.00;58.94
79150;BME280;68563;45.644;13.782;2023-04-24T04:30:17;100077.63;;;16.00;58.86
79150;BME280;68563;45.644;13.782;2023-04-24T04:32:43;100080.50;;;15.94;59.23
79150;BME280;68563;45.644;13.782;2023-04-24T04:35:09;100089.56;;;16.06;59.13
79150;BME280;68563;45.644;13.782;2023-04-24T04:37:35;100083.91;;;15.96;59.39
79150;BME280;68563;45.644;13.782;2023-04-24T04:40:02;100079.59;;;15.95;59.35
79150;BME280;68563;45.644;13.782;2023-04-24T04:42:32;100076.44;;;15.88;59.15
79150;BME280;68563;45.644;13.782;2023-04-24T04:44:57;100079.59;;;15.95;59.65
79150;BME280;68563;45.644;13.782;2023-04-24T04:47:23;100072.03;;;15.89;59.82
79150;BME280;68563;45.644;13.782;2023-04-24T04:49:49;100073.13;;;15.85;59.89
79150;BME280;68563;45.644;13.782;2023-04-24T04:52:16;100078.69;;;15.96;59.68
79150;BME280;68563;45.644;13.782;2023-04-24T04:54:43;100074.47;;;15.93;60.06
79150;BME280;68563;45.644;13.782;2023-04-24T04:57:08;100066.75;;;15.90;59.91
79150;BME280;68563;45.644;13.782;2023-04-24T04:59:34;100079.59;;;15.95;60.03
79150;BME280;68563;45.644;13.782;2023-04-24T05:01:59;100082.38;;;15.92;60.38
79150;BME280;68563;45.644;13.782;2023-04-24T05:04:25;100080.66;;;15.91;60.26
79150;BME280;68563;45.644;13.782;2023-04-24T05:06:51;100077.00;;;15.95;59.94
79150;BME280;68563;45.644;13.782;2023-04-24T05:09:17;100079.69;;;15.93;59.84
79150;BME280;68563;45.644;13.782;2023-04-24T05:11:43;100080.22;;;16.00;59.77
79150;BME280;68563;45.644;13.782;2023-04-24T05:14:08;100077.00;;;15.95;60.03
79150;BME280;68563;45.644;13.782;2023-04-24T05:16:34;100085.63;;;15.97;60.35
79150;BME280;68563;45.644;13.782;2023-04-24T05:18:59;100078.91;;;15.91;59.97
79150;BME280;68563;45.644;13.782;2023-04-24T05:21:25;100081.56;;;15.90;60.16
79150;BME280;68563;45.644;13.782;2023-04-24T05:23:51;100074.66;;;15.89;60.70
79150;BME280;68563;45.644;13.782;2023-04-24T05:26:17;100084.91;;;15.93;60.86
79150;BME280;68563;45.644;13.782;2023-04-24T05:28:42;100093.53;;;15.95;61.23
79150;BME280;68563;45.644;13.782;2023-04-24T05:31:08;100101.28;;;15.97;61.34
79150;BME280;68563;45.644;13.782;2023-04-24T05:33:33;100103.25;;;15.92;61.30
79150;BME280;68563;45.644;13.782;2023-04-24T05:35:59;100098.16;;;15.89;60.98
79150;BME280;68563;45.644;13.782;2023-04-24T05:38:24;100106.00;;;15.89;61.45
79150;BME280;68563;45.644;13.782;2023-04-24T05:40:49;100105.78;;;15.93;61.30
79150;BME280;68563;45.644;13.782;2023-04-24T05:43:15;100104.22;;;15.89;61.74
79150;BME280;68563;45.644;13.782;2023-04-24T05:45:40;100102.41;;;15.91;61.53
79150;BME280;68563;45.644;13.782;2023-04-24T05:48:05;100094.56;;;15.91;61.18
79150;BME280;68563;45.644;13.782;2023-04-24T05:50:31;100097.31;;;15.88;61.00
79150;BME280;68563;45.644;13.782;2023-04-24T05:52:56;100094.47;;;15.93;61.17
79150;BME280;68563;45.644;13.782;2023-04-24T05:55:25;100087.88;;;15.86;61.08
79150;BME280;68563;45.644;13.782;2023-04-24T05:57:51;100094.00;;;15.85;61.53
79150;BME280;68563;45.644;13.782;2023-04-24T06:00:16;100075.28;;;15.73;61.84
79150;BME280;68563;45.644;13.782;2023-04-24T06:02:43;100084.00;;;15.74;61.73
79150;BME280;68563;45.644;13.782;2023-04-24T06:05:08;100083.81;;;15.78;61.86
79150;BME280;68563;45.644;13.782;2023-04-24T06:07:34;100098.53;;;15.79;61.10
79150;BME280;68563;45.644;13.782;2023-04-24T06:10:00;100093.56;;;15.73;61.68
79150;BME280;68563;45.644;13.782;2023-04-24T06:12:25;100079.59;;;15.74;61.12
79150;BME280;68563;45.644;13.782;2023-04-24T06:14:51;100102.91;;;15.79;61.43
79150;BME280;68563;45.644;13.782;2023-04-24T06:17:16;100103.81;;;15.78;61.40
79150;BME280;68563;45.644;13.782;2023-04-24T06:19:42;100110.56;;;15.84;61.35
79150;BME280;68563;45.644;13.782;2023-04-24T06:22:07;100115.66;;;15.87;61.18
79150;BME280;68563;45.644;13.782;2023-04-24T06:24:34;100114.88;;;15.85;61.86
79150;BME280;68563;45.644;13.782;2023-04-24T06:26:59;100103.91;;;15.76;61.63
79150;BME280;68563;45.644;13.782;2023-04-24T06:29:27;100121.09;;;15.80;61.21
79150;BME280;68563;45.644;13.782;2023-04-24T06:31:52;100123.63;;;15.84;61.44
79150;BME280;68563;45.644;13.782;2023-04-24T06:34:17;100117.59;;;15.82;62.11
79150;BME280;68563;45.644;13.782;2023-04-24T06:36:43;100113.75;;;15.70;63.29
79150;BME280;68563;45.644;13.782;2023-04-24T06:39:08;100123.16;;;15.74;63.54
79150;BME280;68563;45.644;13.782;2023-04-24T06:41:34;100108.59;;;15.68;64.46
79150;BME280;68563;45.644;13.782;2023-04-24T06:44:00;100109.78;;;15.61;64.96
79150;BME280;68563;45.644;13.782;2023-04-24T06:46:25;100107.81;;;15.66;64.52
79150;BME280;68563;45.644;13.782;2023-04-24T06:48:53;100102.59;;;15.66;65.24
79150;BME280;68563;45.644;13.782;2023-04-24T06:51:25;100106.25;;;15.62;65.06
79150;BME280;68563;45.644;13.782;2023-04-24T06:53:53;100099.47;;;15.58;65.28
79150;BME280;68563;45.644;13.782;2023-04-24T06:56:19;100098.53;;;15.59;65.41
79150;BME280;68563;45.644;13.782;2023-04-24T06:58:44;100099.47;;;15.58;65.40
79150;BME280;68563;45.644;13.782;2023-04-24T07:01:10;100094.66;;;15.48;65.87
79150;BME280;68563;45.644;13.782;2023-04-24T07:03:36;100091.16;;;15.48;66.09
79150;BME280;68563;45.644;13.782;2023-04-24T07:06:01;100087.47;;;15.54;64.75
79150;BME280;68563;45.644;13.782;2023-04-24T07:08:28;100089.59;;;15.64;64.91
79150;BME280;68563;45.644;13.782;2023-04-24T07:10:56;100085.22;;;15.65;64.40
79150;BME280;68563;45.644;13.782;2023-04-24T07:13:22;100078.34;;;15.64;65.01
79150;BME280;68563;45.644;13.782;2023-04-24T07:15:47;100085.09;;;15.68;64.45
79150;BME280;68563;45.644;13.782;2023-04-24T07:18:15;100077.38;;;15.65;64.73
79150;BME280;68563;45.644;13.782;2023-04-24T07:20:40;100067.66;;;15.69;64.81
79150;BME280;68563;45.644;13.782;2023-04-24T07:23:06;100065.47;;;15.59;65.24
79150;BME280;68563;45.644;13.782;2023-04-24T07:25:31;100066.13;;;15.64;65.26
79150;BME280;68563;45.644;13.782;2023-04-24T07:27:57;100069.81;;;15.59;64.85
79150;BME280;68563;45.644;13.782;2023-04-24T07:30:22;100062.16;;;15.56;65.34
79150;BME280;68563;45.644;13.782;2023-04-24T07:32:48;100064.03;;;15.52;66.46
79150;BME280;68563;45.644;13.782;2023-04-24T07:35:13;100058.22;;;15.45;66.37
79150;BME280;68563;45.644;13.782;2023-04-24T07:37:39;100066.25;;;15.41;66.55
79150;BME280;68563;45.644;13.782;2023-04-24T07:40:04;100059.47;;;15.37;66.88
79150;BME280;68563;45.644;13.782;2023-04-24T07:42:30;100054.06;;;15.41;67.19
79150;BME280;68563;45.644;13.782;2023-04-24T07:44:56;100062.53;;;15.46;67.17
79150;BME280;68563;45.644;13.782;2023-04-24T07:47:21;100050.56;;;15.42;67.08
79150;BME280;68563;45.644;13.782;2023-04-24T07:49:47;100042.03;;;15.37;67.66
79150;BME280;68563;45.644;13.782;2023-04-24T07:52:12;100049.38;;;15.50;67.24
79150;BME280;68563;45.644;13.782;2023-04-24T07:54:37;100043.44;;;15.46;67.22
79150;BME280;68563;45.644;13.782;2023-04-24T07:57:03;100050.91;;;15.54;67.09
79150;BME280;68563;45.644;13.782;2023-04-24T07:59:29;100036.13;;;15.54;67.45
79150;BME280;68563;45.644;13.782;2023-04-24T08:01:54;100055.22;;;15.55;67.20
79150;BME280;68563;45.644;13.782;2023-04-24T08:04:20;100039.66;;;15.53;67.21
79150;BME280;68563;45.644;13.782;2023-04-24T08:06:49;100046.50;;;15.56;67.51
79150;BME280;68563;45.644;13.782;2023-04-24T08:09:14;100048.19;;;15.57;67.59
79150;BME280;68563;45.644;13.782;2023-04-24T08:11:40;100052.34;;;15.61;67.85
79150;BME280;68563;45.644;13.782;2023-04-24T08:14:05;100050.72;;;15.58;68.20
79150;BME280;68563;45.644;13.782;2023-04-24T08:16:32;100057.06;;;15.53;68.08
79150;BME280;68563;45.644;13.782;2023-04-24T08:18:58;100051.13;;;15.49;68.43
79150;BME280;68563;45.644;13.782;2023-04-24T08:21:23;100047.59;;;15.50;67.99
79150;BME280;68563;45.644;13.782;2023-04-24T08:23:48;100034.94;;;15.41;68.29
79150;BME280;68563;45.644;13.782;2023-04-24T08:26:14;100047.66;;;15.48;68.27
79150;BME280;68563;45.644;13.782;2023-04-24T08:28:39;100026.91;;;15.45;67.85
79150;BME280;68563;45.644;13.782;2023-04-24T08:31:05;100034.09;;;15.40;67.98
79150;BME280;68563;45.644;13.782;2023-04-24T08:33:30;100033.66;;;15.30;67.97
79150;BME280;68563;45.644;13.782;2023-04-24T08:36:01;100039.06;;;15.26;68.47
79150;BME280;68563;45.644;13.782;2023-04-24T08:38:26;100036.97;;;15.34;69.23
79150;BME280;68563;45.644;13.782;2023-04-24T08:40:52;100040.31;;;15.38;69.40
79150;BME280;68563;45.644;13.782;2023-04-24T08:43:18;100038.09;;;15.28;69.95
79150;BME280;68563;45.644;13.782;2023-04-24T08:45:46;100032.03;;;15.28;69.85
79150;BME280;68563;45.644;13.782;2023-04-24T08:48:12;100026.16;;;15.23;70.10
79150;BME280;68563;45.644;13.782;2023-04-24T08:50:40;100034.00;;;15.23;70.48
79150;BME280;68563;45.644;13.782;2023-04-24T08:53:08;100030.72;;;15.18;69.75
79150;BME280;68563;45.644;13.782;2023-04-24T08:55:33;100031.31;;;15.24;70.03
79150;BME280;68563;45.644;13.782;2023-04-24T08:58:00;100039.50;;;15.15;71.39
79150;BME280;68563;45.644;13.782;2023-04-24T09:00:26;100021.44;;;15.10;69.89
79150;BME280;68563;45.644;13.782;2023-04-24T09:02:53;100039.50;;;15.15;70.41
79150;BME280;68563;45.644;13.782;2023-04-24T09:05:20;100030.19;;;15.09;70.73
79150;BME280;68563;45.644;13.782;2023-04-24T09:07:49;100033.59;;;15.11;70.05
79150;BME280;68563;45.644;13.782;2023-04-24T09:10:17;100026.94;;;15.04;70.85
79150;BME280;68563;45.644;13.782;2023-04-24T09:12:43;100033.19;;;15.00;71.39
79150;BME280;68563;45.644;13.782;2023-04-24T09:15:10;100031.50;;;14.99;71.37
79150;BME280;68563;45.644;13.782;2023-04-24T09:17:36;100030.59;;;15.00;71.46
79150;BME280;68563;45.644;13.782;2023-04-24T09:20:01;100030.69;;;14.97;70.83
79150;BME280;68563;45.644;13.782;2023-04-24T09:22:30;100038.66;;;14.94;71.26
79150;BME280;68563;45.644;13.782;2023-04-24T09:25:07;100030.16;;;14.89;71.81
79150;BME280;68563;45.644;13.782;2023-04-24T09:27:34;100034.47;;;14.90;70.82
79150;BME280;68563;45.644;13.782;2023-04-24T09:30:01;100040.81;;;14.84;71.78
79150;BME280;68563;45.644;13.782;2023-04-24T09:32:26;100040.56;;;14.90;71.64
79150;BME280;68563;45.644;13.782;2023-04-24T09:37:42;100031.09;;;14.88;71.24
79150;BME280;68563;45.644;13.782;2023-04-24T09:40:10;100030.22;;;14.87;71.70
79150;BME280;68563;45.644;13.782;2023-04-24T09:42:37;100033.56;;;14.91;71.56
79150;BME280;68563;45.644;13.782;2023-04-24T09:45:02;100023.94;;;14.93;71.68
79150;BME280;68563;45.644;13.782;2023-04-24T09:47:36;100026.38;;;14.96;71.61
79150;BME280;68563;45.644;13.782;2023-04-24T09:50:12;100036.63;;;15.00;71.00
79150;BME280;68563;45.644;13.782;2023-04-24T09:52:46;100035.63;;;15.05;70.37
79150;BME280;68563;45.644;13.782;2023-04-24T09:55:14;100038.22;;;15.05;71.10
79150;BME280;68563;45.644;13.782;2023-04-24T09:57:51;100035.00;;;14.98;70.92
79150;BME280;68563;45.644;13.782;2023-04-24T10:00:18;100033.25;;;14.98;70.90
79150;BME280;68563;45.644;13.782;2023-04-24T10:02:44;100045.97;;;15.06;71.50
79150;BME280;68563;45.644;13.782;2023-04-24T10:05:11;100047.41;;;15.13;70.60
79150;BME280;68563;45.644;13.782;2023-04-24T10:07:37;100041.94;;;15.20;70.87
79150;BME280;68563;45.644;13.782;2023-04-24T10:10:03;100033.31;;;15.18;71.10
79150;BME280;68563;45.644;13.782;2023-04-24T10:12:29;100033.78;;;15.27;70.52
79150;BME280;68563;45.644;13.782;2023-04-24T10:14:56;100038.81;;;15.32;70.88
79150;BME280;68563;45.644;13.782;2023-04-24T10:17:22;100039.84;;;15.28;70.83
79150;BME280;68563;45.644;13.782;2023-04-24T10:19:50;100045.91;;;15.28;70.76
79150;BME280;68563;45.644;13.782;2023-04-24T10:22:17;100041.03;;;15.21;71.05
79150;BME280;68563;45.644;13.782;2023-04-24T10:24:43;100039.97;;;15.25;71.23
79150;BME280;68563;45.644;13.782;2023-04-24T10:27:09;100043.50;;;15.24;71.22
79150;BME280;68563;45.644;13.782;2023-04-24T10:29:35;100040.88;;;15.24;71.40
79150;BME280;68563;45.644;13.782;2023-04-24T10:32:01;100034.09;;;15.20;71.50
79150;BME280;68563;45.644;13.782;2023-04-24T10:34:27;100029.81;;;15.19;70.81
79150;BME280;68563;45.644;13.782;2023-04-24T10:36:54;100038.88;;;15.30;71.41
79150;BME280;68563;45.644;13.782;2023-04-24T10:39:21;100037.88;;;15.33;71.57
79150;BME280;68563;45.644;13.782;2023-04-24T10:41:48;100042.72;;;15.42;71.67
79150;BME280;68563;45.644;13.782;2023-04-24T10:44:15;100036.38;;;15.48;69.90
79150;BME280;68563;45.644;13.782;2023-04-24T10:46:49;100045.19;;;15.45;69.89
79150;BME280;68563;45.644;13.782;2023-04-24T10:49:28;100049.22;;;15.53;70.42
79150;BME280;68563;45.644;13.782;2023-04-24T10:51:54;100044.63;;;15.39;69.92
79150;BME280;68563;45.644;13.782;2023-04-24T10:56:51;100044.34;;;15.45;70.20
79150;BME280;68563;45.644;13.782;2023-04-24T10:59:27;100052.97;;;15.47;69.94
79150;BME280;68563;45.644;13.782;2023-04-24T11:01:53;100057.19;;;15.50;69.62
79150;BME280;68563;45.644;13.782;2023-04-24T11:04:30;100049.69;;;15.42;69.52
79150;BME280;68563;45.644;13.782;2023-04-24T11:06:57;100051.47;;;15.41;70.59
79150;BME280;68563;45.644;13.782;2023-04-24T11:09:22;100047.22;;;15.39;70.45
79150;BME280;68563;45.644;13.782;2023-04-24T11:12:02;100053.91;;;15.44;70.38
79150;BME280;68563;45.644;13.782;2023-04-24T11:14:29;100046.34;;;15.38;70.95
79150;BME280;68563;45.644;13.782;2023-04-24T11:16:54;100048.97;;;15.38;70.69
79150;BME280;68563;45.644;13.782;2023-04-24T11:19:25;100051.72;;;15.35;70.89
79150;BME280;68563;45.644;13.782;2023-04-24T11:22:14;100045.59;;;15.36;71.14
79150;BME280;68563;45.644;13.782;2023-04-24T11:27:20;100049.41;;;15.48;70.76
79150;BME280;68563;45.644;13.782;2023-04-24T11:34:59;100058.03;;;15.50;71.13
79150;BME280;68563;45.644;13.782;2023-04-24T11:37:33;100048.84;;;15.41;71.65
79150;BME280;68563;45.644;13.782;2023-04-24T11:39:59;100052.28;;;15.42;72.03
79150;BME280;68563;45.644;13.782;2023-04-24T11:42:25;100043.09;;;15.33;71.15
79150;BME280;68563;45.644;13.782;2023-04-24T11:44:55;100050.28;;;15.48;70.87
79150;BME280;68563;45.644;13.782;2023-04-24T11:47:27;100065.56;;;15.58;71.86
79150;BME280;68563;45.644;13.782;2023-04-24T11:49:52;100057.72;;;15.58;71.74
79150;BME280;68563;45.644;13.782;2023-04-24T11:52:19;100060.66;;;15.50;72.03
79150;BME280;68563;45.644;13.782;2023-04-24T11:54:50;100060.72;;;15.48;71.97
79150;BME280;68563;45.644;13.782;2023-04-24T11:57:18;100050.28;;;15.48;72.33
79150;BME280;68563;45.644;13.782;2023-04-24T11:59:44;100051.84;;;15.53;71.95
79150;BME280;68563;45.644;13.782;2023-04-24T12:02:20;100040.56;;;15.52;70.80
79150;BME280;68563;45.644;13.782;2023-04-24T12:04:45;100033.56;;;15.53;69.67
79150;BME280;68563;45.644;13.782;2023-04-24T12:07:11;100034.34;;;15.55;69.40
79150;BME280;68563;45.644;13.782;2023-04-24T12:12:12;100028.63;;;15.46;69.65
79150;BME280;68563;45.644;13.782;2023-04-24T12:14:47;100024.81;;;15.54;70.02
79150;BME280;68563;45.644;13.782;2023-04-24T12:17:14;100005.91;;;15.48;69.91
79150;BME280;68563;45.644;13.782;2023-04-24T12:19:45;100013.47;;;15.55;70.26
79150;BME280;68563;45.644;13.782;2023-04-24T12:22:10;100014.25;;;15.57;70.19
79150;BME280;68563;45.644;13.782;2023-04-24T12:25:03;100012.56;;;15.56;70.56
79150;BME280;68563;45.644;13.782;2023-04-24T12:27:33;100013.13;;;15.62;71.13
79150;BME280;68563;45.644;13.782;2023-04-24T12:30:02;100003.81;;;15.57;70.96
79150;BME280;68563;45.644;13.782;2023-04-24T12:32:28;100012.41;;;15.59;70.62
79150;BME280;68563;45.644;13.782;2023-04-24T12:34:54;99999.63;;;15.53;70.22
79150;BME280;68563;45.644;13.782;2023-04-24T12:37:20;100015.03;;;15.59;69.91
79150;BME280;68563;45.644;13.782;2023-04-24T12:40:08;100014.19;;;15.58;70.47
79150;BME280;68563;45.644;13.782;2023-04-24T12:42:35;100017.88;;;15.54;70.07
79150;BME280;68563;45.644;13.782;2023-04-24T12:45:06;100012.13;;;15.46;70.09
79150;BME280;68563;45.644;13.782;2023-04-24T12:47:33;100024.91;;;15.52;69.46
79150;BME280;68563;45.644;13.782;2023-04-24T12:49:59;100033.84;;;15.46;69.51
79150;BME280;68563;45.644;13.782;2023-04-24T12:52:26;100038.22;;;15.46;70.22